Time;durP1;ratioP1;P1;durP2;ratioP2;P2;SDS_P1;SDS_P2;PMS_P1;PMS_P2;Temp;Humidity;BMP_temperature;BMP_pressure;BME280_temperature;BME280_humidity;BME280_pressure;Samples;Min_cycle;Max_cycle;Signal;HPM_P1;HPM_P2
2022/07/07 00:00:24;;;;;;;7.07;5.07;;;;;;;18.94;100.00;101985.31;4767185;30;20063;-63
2022/07/07 00:02:50;;;;;;;8.43;5.15;;;;;;;18.92;100.00;101974.84;4753905;30;20067;-63
2022/07/07 00:05:17;;;;;;;8.57;4.95;;;;;;;18.89;100.00;101969.84;4736966;30;20124;-62
2022/07/07 00:07:44;;;;;;;7.82;4.90;;;;;;;18.87;100.00;101963.88;4755535;30;20138;-63
2022/07/07 00:10:11;;;;;;;6.72;4.40;;;;;;;18.85;100.00;101957.91;4746308;30;20058;-64
2022/07/07 00:12:38;;;;;;;6.63;4.38;;;;;;;18.81;100.00;101945.16;4761747;30;20442;-63
2022/07/07 00:15:05;;;;;;;7.00;4.38;;;;;;;18.82;100.00;101952.13;4763472;29;20142;-63
2022/07/07 00:17:32;;;;;;;8.48;4.15;;;;;;;18.76;100.00;101949.13;4755263;30;20062;-62
2022/07/07 00:19:58;;;;;;;6.40;4.18;;;;;;;18.80;100.00;101948.81;4775975;29;20055;-62
2022/07/07 00:22:25;;;;;;;8.98;4.03;;;;;;;18.74;100.00;101953.78;4751449;30;20063;-63
2022/07/07 00:24:51;;;;;;;8.65;4.13;;;;;;;18.78;100.00;101941.81;4757066;29;20056;-62
2022/07/07 00:27:18;;;;;;;7.90;4.30;;;;;;;18.79;100.00;101939.97;4742330;30;20470;-61
2022/07/07 00:29:44;;;;;;;8.07;4.50;;;;;;;18.77;100.00;101940.13;4744478;30;20064;-62
2022/07/07 00:32:11;;;;;;;6.40;4.72;;;;;;;18.73;100.00;101932.69;4758279;30;20071;-63
2022/07/07 00:34:37;;;;;;;7.63;4.72;;;;;;;18.68;100.00;101927.06;4745943;30;20070;-63
2022/07/07 00:37:03;;;;;;;9.85;4.93;;;;;;;18.67;100.00;101917.44;4756626;30;20063;-61
2022/07/07 00:39:30;;;;;;;10.35;5.30;;;;;;;18.66;100.00;101916.63;4755358;29;20059;-62
2022/07/07 00:41:56;;;;;;;9.73;5.50;;;;;;;18.70;100.00;101912.63;4751383;30;20428;-62
2022/07/07 00:44:23;;;;;;;8.95;5.57;;;;;;;18.73;100.00;101904.28;4751427;30;20047;-62
2022/07/07 00:46:51;;;;;;;10.07;5.72;;;;;;;18.72;100.00;101909.81;4764642;30;20502;-62
2022/07/07 00:49:19;;;;;;;9.68;5.60;;;;;;;18.73;100.00;101912.25;4757563;30;20098;-62
2022/07/07 00:51:46;;;;;;;11.23;6.00;;;;;;;18.75;100.00;101912.09;4755326;29;20503;-61
2022/07/07 00:54:13;;;;;;;9.43;6.22;;;;;;;18.76;100.00;101908.44;4764644;30;20302;-62
2022/07/07 00:56:40;;;;;;;10.45;5.65;;;;;;;18.76;100.00;101906.59;4746488;30;20055;-63
2022/07/07 00:59:06;;;;;;;9.57;6.20;;;;;;;18.78;100.00;101909.91;4756430;30;20052;-62
2022/07/07 01:01:40;;;;;;;12.63;6.18;;;;;;;18.75;100.00;101904.94;4745518;30;20709;-63
2022/07/07 01:04:09;;;;;;;12.63;6.32;;;;;;;18.79;100.00;101905.41;4765608;30;20059;-63
2022/07/07 01:06:36;;;;;;;8.10;5.72;;;;;;;18.89;100.00;101916.69;4740619;30;20081;-62
2022/07/07 01:09:04;;;;;;;11.18;6.72;;;;;;;18.89;100.00;101907.91;4739433;30;20060;-63
2022/07/07 01:11:51;;;;;;;10.65;6.82;;;;;;;18.91;100.00;101901.38;4757451;30;20056;-62
2022/07/07 01:14:17;;;;;;;12.25;6.15;;;;;;;18.90;100.00;101899.75;4749980;30;20052;-62
2022/07/07 01:16:45;;;;;;;10.93;6.30;;;;;;;18.86;100.00;101898.44;4751659;29;20058;-63
2022/07/07 01:19:11;;;;;;;11.07;6.55;;;;;;;18.83;100.00;101895.31;4745113;30;20548;-63
2022/07/07 01:21:52;;;;;;;10.10;5.85;;;;;;;18.86;100.00;101894.97;4755656;29;20070;-63
2022/07/07 01:24:23;;;;;;;9.98;6.38;;;;;;;18.87;100.00;101883.31;4758364;30;20048;-64
2022/07/07 01:26:50;;;;;;;9.27;5.65;;;;;;;18.85;100.00;101895.97;4752956;30;20451;-63
2022/07/07 01:29:16;;;;;;;11.40;6.55;;;;;;;18.83;100.00;101893.47;4757030;30;20673;-62
2022/07/07 01:31:43;;;;;;;11.13;6.15;;;;;;;18.85;100.00;101880.81;4760432;29;20059;-62
2022/07/07 01:34:09;;;;;;;9.40;6.50;;;;;;;18.81;100.00;101882.19;4753264;30;20147;-64
2022/07/07 01:36:36;;;;;;;10.93;5.78;;;;;;;18.77;100.00;101879.00;4735037;30;20428;-62
2022/07/07 01:39:02;;;;;;;12.48;6.80;;;;;;;18.81;100.00;101892.00;4757176;30;20059;-62
2022/07/07 01:41:29;;;;;;;11.75;6.25;;;;;;;18.83;100.00;101866.88;4757644;30;20056;-62
2022/07/07 01:43:55;;;;;;;15.18;6.72;;;;;;;18.91;100.00;101877.47;4756188;30;20060;-62
2022/07/07 01:46:22;;;;;;;9.35;6.15;;;;;;;18.90;100.00;101875.00;4761442;30;20047;-63
2022/07/07 01:48:48;;;;;;;10.35;6.07;;;;;;;18.95;100.00;101865.50;4736133;30;20532;-62
2022/07/07 01:51:14;;;;;;;12.15;6.47;;;;;;;18.98;100.00;101866.16;4754150;30;20063;-63
2022/07/07 01:53:41;;;;;;;9.68;5.25;;;;;;;18.94;100.00;101869.16;4765442;30;20058;-62
2022/07/07 01:56:07;;;;;;;9.18;5.07;;;;;;;18.90;100.00;101867.03;4744689;30;20060;-62
2022/07/07 01:58:34;;;;;;;7.35;4.55;;;;;;;18.90;100.00;101862.53;4755109;30;20086;-63
2022/07/07 02:01:00;;;;;;;10.45;5.80;;;;;;;18.87;100.00;101864.72;4754851;30;20059;-62
2022/07/07 02:03:27;;;;;;;10.90;5.43;;;;;;;18.88;100.00;101858.41;4748672;29;20055;-62
2022/07/07 02:05:54;;;;;;;16.05;6.03;;;;;;;18.89;100.00;101865.34;4742172;30;20158;-63
2022/07/07 02:08:20;;;;;;;11.70;5.90;;;;;;;18.90;100.00;101859.06;4753566;30;20048;-62
2022/07/07 02:13:32;;;;;;;12.02;5.30;;;;;;;18.87;100.00;101851.41;4748541;30;20055;-63
2022/07/07 02:15:58;;;;;;;10.25;5.50;;;;;;;18.89;100.00;101844.09;4761178;30;20051;-61
2022/07/07 02:18:24;;;;;;;9.43;5.25;;;;;;;18.96;100.00;101848.53;4744772;29;20060;-63
2022/07/07 02:20:51;;;;;;;10.38;5.22;;;;;;;18.91;100.00;101844.75;4757415;30;20070;-63
2022/07/07 02:23:17;;;;;;;10.85;4.53;;;;;;;18.96;100.00;101843.22;4750217;30;20510;-63
2022/07/07 02:25:44;;;;;;;7.85;4.43;;;;;;;18.90;100.00;101838.59;4757044;30;20122;-63
2022/07/07 02:28:11;;;;;;;7.78;4.35;;;;;;;18.91;100.00;101831.44;4752977;30;20060;-62
2022/07/07 02:30:37;;;;;;;7.00;3.80;;;;;;;18.91;100.00;101831.44;4739742;30;20056;-62
2022/07/07 02:33:04;;;;;;;8.68;3.90;;;;;;;18.80;100.00;101831.84;4753350;30;20063;-63
2022/07/07 02:35:30;;;;;;;9.95;3.45;;;;;;;18.82;100.00;101840.47;4747550;30;20074;-63
2022/07/07 02:37:57;;;;;;;10.52;4.13;;;;;;;18.79;100.00;101841.63;4759882;30;20070;-64
2022/07/07 02:40:23;;;;;;;11.63;4.20;;;;;;;18.85;100.00;101864.88;4740100;30;20494;-63
2022/07/07 02:42:49;;;;;;;8.07;3.45;;;;;;;18.76;100.00;101861.44;4754856;30;20070;-62
2022/07/07 02:45:16;;;;;;;4.50;2.65;;;;;;;18.65;100.00;101879.59;4752959;30;20070;-62
2022/07/07 02:47:42;;;;;;;5.82;2.38;;;;;;;18.50;100.00;101884.81;4745622;30;20055;-61
2022/07/07 02:50:09;;;;;;;6.00;1.98;;;;;;;18.41;100.00;101880.53;4753568;30;20069;-62
2022/07/07 02:52:35;;;;;;;5.13;1.90;;;;;;;18.23;100.00;101883.41;4754007;30;20059;-62
2022/07/07 02:55:02;;;;;;;4.18;1.70;;;;;;;18.04;100.00;101874.84;4759510;30;20056;-63
2022/07/07 02:57:28;;;;;;;2.75;1.58;;;;;;;17.98;100.00;101870.22;4758430;30;20090;-63
2022/07/07 02:59:55;;;;;;;6.90;1.92;;;;;;;17.91;100.00;101863.91;4755088;30;20064;-62
2022/07/07 03:02:21;;;;;;;3.80;2.00;;;;;;;17.86;100.00;101860.97;4754995;30;20056;-63
2022/07/07 03:04:48;;;;;;;2.97;2.10;;;;;;;17.74;100.00;101861.28;4758703;29;20062;-62
2022/07/07 03:07:14;;;;;;;3.28;1.83;;;;;;;17.72;100.00;101860.63;4764644;30;20083;-63
2022/07/07 03:09:41;;;;;;;2.92;2.00;;;;;;;17.73;100.00;101858.78;4750781;29;20060;-63
2022/07/07 03:12:07;;;;;;;4.50;2.00;;;;;;;17.58;100.00;101861.28;4755694;30;20130;-62
2022/07/07 03:14:34;;;;;;;5.20;1.63;;;;;;;17.59;100.00;101860.28;4754716;29;20071;-63
2022/07/07 03:17:00;;;;;;;3.85;2.00;;;;;;;17.58;100.00;101845.34;4758724;30;20102;-63
2022/07/07 03:19:27;;;;;;;3.63;2.00;;;;;;;17.61;100.00;101849.53;4763000;30;20052;-62
2022/07/07 03:21:53;;;;;;;3.70;2.10;;;;;;;17.56;100.00;101844.69;4754130;30;20154;-62
2022/07/07 03:24:20;;;;;;;4.43;2.13;;;;;;;17.52;100.00;101843.38;4764768;30;20104;-61
2022/07/07 03:26:46;;;;;;;5.32;2.35;;;;;;;17.47;100.00;101848.38;4742504;30;20236;-62
2022/07/07 03:29:13;;;;;;;3.78;2.30;;;;;;;17.48;100.00;101845.53;4748845;30;20417;-63
2022/07/07 03:31:39;;;;;;;5.93;2.30;;;;;;;17.43;100.00;101836.44;4759745;30;20204;-62
2022/07/07 03:34:06;;;;;;;3.55;2.03;;;;;;;17.41;100.00;101833.97;4743874;30;20542;-63
2022/07/07 03:36:32;;;;;;;3.40;2.13;;;;;;;17.38;100.00;101848.34;4766716;30;20062;-63
2022/07/07 03:38:59;;;;;;;4.40;2.30;;;;;;;17.38;100.00;101831.63;4750550;30;20121;-63
2022/07/07 03:41:25;;;;;;;6.63;2.78;;;;;;;17.36;100.00;101844.22;4756748;29;20096;-63
2022/07/07 03:43:52;;;;;;;5.13;2.83;;;;;;;17.34;100.00;101843.56;4742075;29;20083;-63
2022/07/07 03:46:18;;;;;;;3.75;2.60;;;;;;;17.26;100.00;101849.69;4755892;30;20332;-62
2022/07/07 03:48:45;;;;;;;5.97;2.47;;;;;;;17.31;100.00;101839.44;4760515;30;20143;-63
2022/07/07 03:51:12;;;;;;;6.60;2.85;;;;;;;17.32;100.00;101842.91;4750747;29;20466;-63
2022/07/07 03:53:38;;;;;;;3.88;2.33;;;;;;;17.30;100.00;101840.41;4752901;30;20087;-63
2022/07/07 03:56:05;;;;;;;6.55;2.63;;;;;;;17.34;100.00;101832.94;4742276;30;20095;-62
2022/07/07 03:58:31;;;;;;;6.13;2.90;;;;;;;17.28;100.00;101834.44;4760658;30;20083;-62
2022/07/07 04:00:59;;;;;;;7.38;2.90;;;;;;;17.29;100.00;101820.19;4768049;30;20091;-63
2022/07/07 04:03:26;;;;;;;3.55;2.70;;;;;;;17.29;100.00;101824.66;4760836;30;20153;-64
2022/07/07 04:05:53;;;;;;;5.28;2.60;;;;;;;17.22;100.00;101826.34;4764407;29;20064;-63
2022/07/07 04:08:20;;;;;;;4.30;2.53;;;;;;;17.17;100.00;101832.13;4741737;30;20488;-63
2022/07/07 04:10:46;;;;;;;4.43;2.63;;;;;;;17.16;100.00;101831.28;4753201;30;20375;-62
2022/07/07 04:13:13;;;;;;;4.63;2.40;;;;;;;17.22;100.00;101826.34;4747450;29;20134;-63
2022/07/07 04:15:39;;;;;;;4.05;2.50;;;;;;;17.19;100.00;101832.81;4754723;30;20140;-62
2022/07/07 04:18:06;;;;;;;5.72;3.50;;;;;;;17.23;100.00;101831.47;4775540;29;20597;-63
2022/07/07 04:20:33;;;;;;;5.82;3.03;;;;;;;17.27;100.00;101835.44;4767780;29;20102;-63
2022/07/07 04:22:59;;;;;;;5.25;2.75;;;;;;;17.29;100.00;101830.81;4753546;30;20200;-63
2022/07/07 04:25:32;;;;;;;5.88;3.25;;;;;;;17.30;100.00;101834.28;4750157;30;20134;-60
2022/07/07 04:27:58;;;;;;;4.78;2.85;;;;;;;17.28;100.00;101829.13;4763898;30;20483;-63
2022/07/07 04:30:25;;;;;;;4.78;3.15;;;;;;;17.26;100.00;101833.78;4755758;30;20547;-63
2022/07/07 04:32:51;;;;;;;7.13;3.45;;;;;;;17.23;100.00;101836.78;4761263;29;20169;-62
2022/07/07 04:35:18;;;;;;;7.38;3.13;;;;;;;17.28;100.00;101831.78;4746650;30;20158;-63
2022/07/07 04:37:44;;;;;;;6.50;3.47;;;;;;;17.32;100.00;101834.94;4747510;30;20091;-63
2022/07/07 04:40:11;;;;;;;5.78;2.88;;;;;;;17.30;100.00;101837.75;4758265;30;20144;-63
2022/07/07 04:42:38;;;;;;;6.22;2.70;;;;;;;17.29;100.00;101836.13;4748626;30;20547;-62
2022/07/07 04:45:05;;;;;;;5.93;2.65;;;;;;;17.27;100.00;101843.41;4751182;30;20170;-62
2022/07/07 04:47:32;;;;;;;6.32;2.05;;;;;;;17.23;100.00;101839.44;4745201;30;20091;-64
2022/07/07 04:49:58;;;;;;;4.97;2.20;;;;;;;17.23;100.00;101844.72;4754156;30;20517;-63
2022/07/07 04:52:25;;;;;;;4.55;1.73;;;;;;;17.25;100.00;101853.34;4757011;30;20158;-63
2022/07/07 04:54:51;;;;;;;5.38;1.80;;;;;;;17.29;100.00;101851.19;4755666;30;20055;-63
2022/07/07 04:57:23;;;;;;;2.00;1.25;;;;;;;17.32;100.00;101856.16;4760681;30;20480;-63
2022/07/07 04:59:49;;;;;;;4.03;1.40;;;;;;;17.35;100.00;101861.16;4757061;30;20051;-63
2022/07/07 05:02:16;;;;;;;2.35;1.30;;;;;;;17.32;100.00;101861.47;4742801;30;20060;-63
2022/07/07 05:04:42;;;;;;;3.17;1.40;;;;;;;17.34;100.00;101867.44;4735490;30;20092;-62
2022/07/07 05:07:09;;;;;;;5.38;1.52;;;;;;;17.27;100.00;101869.94;4741595;30;20055;-62
2022/07/07 05:09:35;;;;;;;2.95;1.20;;;;;;;17.28;100.00;101871.56;4744939;30;20055;-62
2022/07/07 05:12:03;;;;;;;2.58;1.23;;;;;;;17.38;100.00;101868.75;4749062;30;20063;-62
2022/07/07 05:14:29;;;;;;;5.30;1.40;;;;;;;17.37;100.00;101885.69;4758731;30;20063;-63
2022/07/07 05:16:56;;;;;;;3.33;1.52;;;;;;;17.36;100.00;101887.47;4742209;30;20060;-63
2022/07/07 05:19:23;;;;;;;6.43;1.52;;;;;;;17.39;100.00;101889.81;4748604;30;20095;-63
2022/07/07 05:21:49;;;;;;;5.28;1.17;;;;;;;17.44;100.00;101884.00;4752105;30;20056;-63
2022/07/07 05:24:16;;;;;;;3.35;1.20;;;;;;;17.49;100.00;101902.91;4737587;30;20081;-63
2022/07/07 05:26:42;;;;;;;5.70;1.40;;;;;;;17.52;100.00;101894.63;4749490;30;20056;-63
2022/07/07 05:29:08;;;;;;;4.40;1.10;;;;;;;17.46;100.00;101899.75;4738348;29;20718;-62
2022/07/07 05:31:35;;;;;;;4.28;1.40;;;;;;;17.48;100.00;101911.03;4751342;30;20063;-62
2022/07/07 05:34:02;;;;;;;5.28;1.45;;;;;;;17.38;100.00;101919.13;4744183;29;20076;-64
2022/07/07 05:36:29;;;;;;;8.73;1.50;;;;;;;17.24;100.00;101925.09;4758782;30;20048;-64
2022/07/07 05:38:56;;;;;;;5.53;1.50;;;;;;;17.19;100.00;101931.72;4758036;30;20146;-63
2022/07/07 05:41:22;;;;;;;3.25;1.15;;;;;;;17.16;100.00;101931.22;4743151;30;20402;-63
2022/07/07 05:43:49;;;;;;;5.13;1.48;;;;;;;17.10;100.00;101939.81;4760448;30;20524;-63
2022/07/07 05:46:15;;;;;;;5.38;1.50;;;;;;;17.15;100.00;101937.50;4750714;29;20067;-63
2022/07/07 05:48:42;;;;;;;7.40;2.08;;;;;;;17.19;100.00;101939.69;4764402;29;20055;-63
2022/07/07 05:51:08;;;;;;;7.22;1.25;;;;;;;17.23;100.00;101947.28;4753565;30;20135;-61
2022/07/07 05:53:35;;;;;;;7.05;1.77;;;;;;;17.32;100.00;101947.13;4743465;30;20085;-63
2022/07/07 05:56:01;;;;;;;7.68;1.23;;;;;;;17.21;100.00;101952.78;4746772;30;20070;-63
2022/07/07 05:58:28;;;;;;;8.18;1.50;;;;;;;17.31;100.00;101961.41;4731934;30;20063;-63
2022/07/07 06:00:56;;;;;;;10.75;2.22;;;;;;;17.43;100.00;101959.28;4748043;30;20067;-63
2022/07/07 06:03:22;;;;;;;8.18;1.40;;;;;;;17.51;100.00;101959.28;4743457;29;20138;-63
2022/07/07 06:05:49;;;;;;;7.10;1.10;;;;;;;17.54;100.00;101974.03;4757571;30;20062;-63
2022/07/07 06:08:17;;;;;;;8.68;1.50;;;;;;;17.55;100.00;101970.41;4753211;30;20059;-63
2022/07/07 06:10:45;;;;;;;8.00;1.50;;;;;;;17.63;100.00;101970.41;4745952;30;20071;-63
2022/07/07 06:13:11;;;;;;;6.65;1.75;;;;;;;17.60;100.00;101976.00;4762072;30;20059;-63
2022/07/07 06:15:38;;;;;;;8.30;1.20;;;;;;;17.54;100.00;101976.69;4750845;29;20055;-64
2022/07/07 06:18:05;;;;;;;9.15;1.27;;;;;;;17.62;100.00;101989.13;4753779;30;20060;-64
2022/07/07 06:20:34;;;;;;;7.80;1.50;;;;;;;17.51;100.00;101988.44;4746853;30;20161;-63
2022/07/07 06:23:00;;;;;;;10.65;1.77;;;;;;;17.47;100.00;101994.25;4769551;30;20059;-64
2022/07/07 06:25:27;;;;;;;6.20;1.45;;;;;;;17.23;100.00;102009.13;4758827;30;20060;-64
2022/07/07 06:27:54;;;;;;;16.15;2.65;;;;;;;17.08;100.00;102008.06;4757321;30;20059;-64
2022/07/07 06:30:21;;;;;;;10.23;2.20;;;;;;;17.00;100.00;102008.88;4756397;30;20070;-63
2022/07/07 06:32:47;;;;;;;6.38;1.40;;;;;;;16.88;100.00;102018.94;4763598;29;20067;-63
2022/07/07 06:35:14;;;;;;;14.43;2.90;;;;;;;16.97;100.00;102017.13;4760152;30;20066;-62
2022/07/07 06:37:41;;;;;;;6.72;1.35;;;;;;;16.91;100.00;102018.59;4747559;29;20490;-64
2022/07/07 06:40:08;;;;;;;7.18;1.33;;;;;;;16.92;100.00;102014.16;4742701;30;20056;-64
2022/07/07 06:42:34;;;;;;;7.78;1.30;;;;;;;16.92;100.00;102019.44;4749118;30;20082;-63
2022/07/07 06:45:01;;;;;;;7.57;1.20;;;;;;;16.92;100.00;102011.50;4750763;30;20518;-63
2022/07/07 06:47:27;;;;;;;6.82;1.70;;;;;;;16.95;100.00;102016.47;4764703;30;20059;-63
2022/07/07 06:49:54;;;;;;;8.02;1.40;;;;;;;17.08;100.00;102029.28;4760476;30;20068;-62
2022/07/07 06:52:20;;;;;;;7.13;1.35;;;;;;;17.14;100.00;102028.63;4764797;30;20374;-63
2022/07/07 06:54:47;;;;;;;8.38;1.70;;;;;;;17.10;100.00;102020.16;4758957;29;20062;-63
2022/07/07 06:57:15;;;;;;;6.03;1.45;;;;;;;17.11;100.00;102021.84;4752860;30;20385;-63
2022/07/07 06:59:41;;;;;;;11.07;1.33;;;;;;;17.26;100.00;102032.66;4759663;30;20120;-63
2022/07/07 07:02:07;;;;;;;8.20;1.80;;;;;;;17.33;100.00;102031.03;4755096;30;20075;-64
2022/07/07 07:04:34;;;;;;;5.53;1.20;;;;;;;17.42;100.00;102025.72;4775846;29;20055;-63
2022/07/07 07:07:01;;;;;;;7.75;1.70;;;;;;;17.52;100.00;102032.56;4756604;29;20051;-64
2022/07/07 07:09:27;;;;;;;6.20;1.38;;;;;;;17.57;100.00;102032.06;4753733;29;20299;-64
2022/07/07 07:11:54;;;;;;;7.25;1.30;;;;;;;17.68;100.00;102030.91;4757276;30;20068;-64
2022/07/07 07:14:25;;;;;;;9.10;1.60;;;;;;;17.70;100.00;102039.53;4754806;30;20167;-64
2022/07/07 07:16:51;;;;;;;6.90;1.33;;;;;;;17.68;100.00;102034.41;4760775;30;20480;-63
2022/07/07 07:19:18;;;;;;;3.42;1.10;;;;;;;17.78;100.00;102040.41;4757480;30;20561;-63
2022/07/07 07:21:44;;;;;;;7.30;1.10;;;;;;;17.88;100.00;102048.22;4753248;30;20436;-64
2022/07/07 07:24:12;;;;;;;7.00;1.08;;;;;;;17.86;100.00;102055.53;4746445;30;20066;-64
2022/07/07 07:26:39;;;;;;;8.18;1.27;;;;;;;17.90;100.00;102054.22;4753295;30;20047;-63
2022/07/07 07:29:12;;;;;;;5.35;1.00;;;;;;;17.98;100.00;102064.00;4752456;30;20556;-63
2022/07/07 07:31:38;;;;;;;5.07;1.13;;;;;;;17.96;100.00;102058.03;4747319;30;20051;-64
2022/07/07 07:34:05;;;;;;;3.00;0.63;;;;;;;17.95;100.00;102069.63;4767347;30;20059;-63
2022/07/07 07:36:31;;;;;;;5.45;0.75;;;;;;;17.92;100.00;102062.84;4746743;30;20047;-64
2022/07/07 07:38:58;;;;;;;2.70;0.82;;;;;;;18.00;100.00;102051.41;4754765;29;20070;-64
2022/07/07 07:41:25;;;;;;;10.18;1.20;;;;;;;18.01;100.00;102060.19;4748832;30;20063;-64
2022/07/07 07:43:51;;;;;;;4.25;0.90;;;;;;;18.00;100.00;102071.81;4762361;30;20080;-64
2022/07/07 07:46:19;;;;;;;5.28;0.93;;;;;;;18.09;100.00;102078.75;4756746;29;20060;-64
2022/07/07 07:48:46;;;;;;;17.88;2.88;;;;;;;18.13;100.00;102077.44;4757332;30;20055;-64
2022/07/07 07:51:12;;;;;;;4.40;0.90;;;;;;;18.08;100.00;102080.59;4753435;30;20063;-64
2022/07/07 07:53:39;;;;;;;4.28;1.13;;;;;;;18.18;100.00;102081.25;4755637;29;20060;-64
2022/07/07 07:56:05;;;;;;;4.80;1.20;;;;;;;18.14;100.00;102082.59;4757983;30;20067;-63
2022/07/07 07:58:32;;;;;;;4.88;1.00;;;;;;;18.29;100.00;102085.41;4754877;30;20056;-63
2022/07/07 08:00:58;;;;;;;4.15;0.90;;;;;;;18.45;100.00;102087.22;4760155;29;20705;-62
2022/07/07 08:03:25;;;;;;;5.72;1.10;;;;;;;18.47;100.00;102087.06;4763621;30;20397;-63
2022/07/07 08:05:53;;;;;;;4.53;1.00;;;;;;;18.51;100.00;102091.03;4744390;30;20077;-63
2022/07/07 08:08:19;;;;;;;5.25;0.90;;;;;;;18.45;100.00;102086.41;4751446;30;20296;-63
2022/07/07 08:10:46;;;;;;;5.20;1.08;;;;;;;18.34;100.00;102092.88;4750018;30;20063;-63
2022/07/07 08:13:13;;;;;;;7.47;1.10;;;;;;;18.24;100.00;102103.66;4767334;30;20059;-63
2022/07/07 08:15:39;;;;;;;5.63;1.17;;;;;;;18.12;100.00;102105.00;4747525;30;20062;-62
2022/07/07 08:18:05;;;;;;;6.22;1.33;;;;;;;18.12;100.00;102102.34;4753714;30;20062;-62
2022/07/07 08:20:32;;;;;;;6.05;1.40;;;;;;;18.06;100.00;102101.16;4754148;30;20509;-62
2022/07/07 08:22:59;;;;;;;7.13;1.45;;;;;;;18.07;100.00;102102.00;4752940;30;20069;-63
2022/07/07 08:25:25;;;;;;;5.30;1.23;;;;;;;18.26;100.00;102109.63;4761192;29;20059;-62
2022/07/07 08:27:51;;;;;;;7.32;1.20;;;;;;;18.24;100.00;102100.19;4752338;30;20699;-63
2022/07/07 08:30:18;;;;;;;7.57;1.20;;;;;;;18.33;100.00;102102.69;4764872;29;20269;-63
2022/07/07 08:32:45;;;;;;;6.35;1.20;;;;;;;18.37;100.00;102100.53;4729882;30;20279;-63
2022/07/07 08:35:14;;;;;;;5.60;0.88;;;;;;;18.58;100.00;102106.16;4755114;29;20063;-62
2022/07/07 08:37:41;;;;;;;8.23;1.40;;;;;;;18.75;100.00;102090.16;4763199;29;21283;-63
2022/07/07 08:40:08;;;;;;;7.03;1.48;;;;;;;18.85;100.00;102093.50;4744202;30;20150;-64
2022/07/07 08:42:39;;;;;;;12.68;2.10;;;;;;;18.83;100.00;102107.97;4752687;30;20056;-63
2022/07/07 08:45:06;;;;;;;8.50;1.40;;;;;;;18.54;100.00;102120.78;4753484;30;20497;-63
2022/07/07 08:47:33;;;;;;;6.20;1.92;;;;;;;18.45;100.00;102129.75;4753206;29;20063;-63
2022/07/07 08:50:00;;;;;;;4.97;0.82;;;;;;;18.32;100.00;102127.56;4750641;29;20060;-64
2022/07/07 08:52:27;;;;;;;3.78;0.82;;;;;;;18.34;100.00;102125.56;4759317;29;20064;-63
2022/07/07 08:54:55;;;;;;;5.07;1.30;;;;;;;18.42;100.00;102129.22;4759774;30;20063;-63
2022/07/07 08:57:23;;;;;;;5.25;1.20;;;;;;;18.88;100.00;102133.03;4746021;30;20048;-64
2022/07/07 08:59:49;;;;;;;4.10;1.00;;;;;;;19.00;100.00;102133.50;4747602;30;20429;-63
2022/07/07 09:02:15;;;;;;;6.43;0.80;;;;;;;19.40;100.00;102144.19;4759922;30;20596;-64
2022/07/07 09:04:42;;;;;;;7.13;0.93;;;;;;;19.43;100.00;102133.22;4762980;29;20060;-64
2022/07/07 09:07:08;;;;;;;7.72;1.25;;;;;;;19.56;100.00;102147.59;4742889;30;20051;-63
2022/07/07 09:09:44;;;;;;;3.95;0.95;;;;;;;19.59;100.00;102151.75;4751823;30;20055;-64
2022/07/07 09:12:13;;;;;;;6.22;1.02;;;;;;;19.50;100.00;102145.66;4753008;30;20055;-63
2022/07/07 09:14:45;;;;;;;4.28;1.38;;;;;;;19.44;100.00;102142.81;4749127;30;20517;-64
2022/07/07 09:17:30;;;;;;;3.92;0.75;;;;;;;19.39;100.00;102156.66;4754807;30;20423;-63
2022/07/07 09:20:03;;;;;;;2.00;0.65;;;;;;;19.29;100.00;102162.19;4750214;30;20055;-63
2022/07/07 09:22:53;;;;;;;2.40;0.80;;;;;;;19.21;100.00;102164.88;4752515;30;20410;-63
2022/07/07 09:25:28;;;;;;;;;;;;;;;19.21;100.00;102162.22;4741828;30;20066;-64
2022/07/07 09:27:59;;;;;;;7.93;0.70;;;;;;;19.41;100.00;102175.13;4760235;29;19940;-64
2022/07/07 09:30:37;;;;;;;5.57;0.80;;;;;;;19.61;100.00;102173.69;4747307;30;20510;-65
2022/07/07 09:33:12;;;;;;;2.42;0.60;;;;;;;20.02;100.00;102175.34;4752420;30;20164;-65
2022/07/07 09:38:29;;;;;;;;;;;;;;;20.42;100.00;102173.38;4753634;30;20143;-64
2022/07/07 09:41:04;;;;;;;3.85;0.80;;;;;;;20.64;100.00;102190.38;4738100;30;19929;-64
2022/07/07 09:43:43;;;;;;;3.25;0.80;;;;;;;20.73;100.00;102176.81;4749808;30;20059;-64
2022/07/07 09:46:11;;;;;;;2.97;0.57;;;;;;;20.74;100.00;102183.00;4760139;30;20058;-64
2022/07/07 09:48:40;;;;;;;3.13;0.80;;;;;;;20.57;100.00;102197.44;4743800;30;20051;-65
2022/07/07 09:51:09;;;;;;;4.10;1.08;;;;;;;20.51;100.00;102197.13;4754878;30;20525;-64
2022/07/07 09:53:57;;;;;;;2.25;0.60;;;;;;;20.41;100.00;102203.72;4740675;30;20694;-65
2022/07/07 09:56:33;;;;;;;3.08;0.70;;;;;;;20.28;100.00;102217.63;4753989;30;20141;-65
2022/07/07 09:59:02;;;;;;;3.30;0.75;;;;;;;20.15;100.00;102213.72;4765137;30;20494;-64
2022/07/07 10:01:32;;;;;;;1.95;0.85;;;;;;;19.95;100.00;102224.00;4766836;29;20090;-65
2022/07/07 10:04:01;;;;;;;2.53;0.70;;;;;;;19.86;100.00;102226.88;4752987;30;20683;-64
2022/07/07 10:06:29;;;;;;;1.88;0.80;;;;;;;19.93;100.00;102233.13;4740431;30;20063;-64
2022/07/07 10:09:07;;;;;;;2.50;0.55;;;;;;;19.89;100.00;102239.81;4750482;30;20172;-64
2022/07/07 10:11:36;;;;;;;;;;;;;;;19.85;100.00;102236.66;4742409;30;20052;-64
2022/07/07 10:14:10;;;;;;;2.17;0.80;;;;;;;19.77;100.00;102233.22;4765441;30;19930;-63
2022/07/07 10:16:40;;;;;;;2.22;0.73;;;;;;;19.81;100.00;102234.53;4742920;30;20064;-64
2022/07/07 10:19:12;;;;;;;4.10;0.93;;;;;;;19.89;100.00;102235.31;4752041;30;20079;-64
2022/07/07 10:21:44;;;;;;;2.47;0.70;;;;;;;20.02;100.00;102236.59;4751358;30;20060;-64
2022/07/07 10:24:11;;;;;;;2.22;0.60;;;;;;;19.99;100.00;102248.41;4755786;30;20309;-64
2022/07/07 10:26:53;;;;;;;2.00;0.65;;;;;;;20.05;100.00;102244.22;4769053;30;20846;-63
2022/07/07 10:29:38;;;;;;;3.65;0.85;;;;;;;20.27;100.00;102251.44;4751283;30;20060;-64
2022/07/07 10:32:05;;;;;;;4.93;0.80;;;;;;;20.29;100.00;102254.75;4750341;30;20096;-64
2022/07/07 10:34:33;;;;;;;2.97;1.00;;;;;;;20.23;100.00;102251.94;4737206;30;20052;-64
2022/07/07 10:37:07;;;;;;;3.00;0.87;;;;;;;20.21;100.00;102259.28;4753214;30;20109;-64
2022/07/07 10:39:46;;;;;;;5.88;0.90;;;;;;;20.09;100.00;102273.03;4751674;30;20067;-64
2022/07/07 10:42:37;;;;;;;3.70;0.88;;;;;;;19.95;100.00;102266.59;4745970;30;20467;-64
2022/07/07 10:45:05;;;;;;;1.80;0.90;;;;;;;19.78;100.00;102277.47;4744945;30;20521;-64
2022/07/07 10:47:34;;;;;;;3.35;0.70;;;;;;;19.66;100.00;102288.47;4745970;30;20060;-64
2022/07/07 10:50:01;;;;;;;3.13;0.88;;;;;;;19.75;100.00;102283.97;4749198;30;20070;-65
2022/07/07 10:52:48;;;;;;;3.08;0.85;;;;;;;19.87;100.00;102282.59;4743823;30;20066;-64
2022/07/07 10:55:56;;;;;;;4.75;1.10;;;;;;;20.08;100.00;102286.50;4751612;30;20063;-63
2022/07/07 10:58:52;;;;;;;3.40;0.90;;;;;;;20.18;100.00;102284.44;4770870;29;20063;-64
2022/07/07 11:01:19;;;;;;;2.75;0.95;;;;;;;20.24;100.00;102281.09;4765539;30;20067;-63
2022/07/07 11:03:45;;;;;;;4.38;1.38;;;;;;;20.26;100.00;102283.59;4756017;29;20291;-64
2022/07/07 11:06:12;;;;;;;2.97;1.15;;;;;;;20.46;100.00;102291.94;4758156;30;20074;-64
2022/07/07 11:08:39;;;;;;;1.83;0.90;;;;;;;20.69;100.00;102286.66;4748799;30;20102;-64
2022/07/07 11:11:06;;;;;;;3.70;1.02;;;;;;;20.71;100.00;102284.66;4759492;30;20071;-64
2022/07/07 11:13:38;;;;;;;2.70;1.10;;;;;;;20.82;100.00;102286.91;4763860;30;20062;-63
2022/07/07 11:16:21;;;;;;;2.22;0.90;;;;;;;20.69;100.00;102281.34;4760738;29;20334;-63
2022/07/07 11:18:56;;;;;;;4.28;0.77;;;;;;;20.53;100.00;102291.06;4757448;30;20095;-64
2022/07/07 11:21:45;;;;;;;3.30;0.95;;;;;;;20.40;100.00;102311.31;4747860;30;20059;-64
2022/07/07 11:24:23;;;;;;;3.65;0.85;;;;;;;20.29;100.00;102324.03;4758111;30;20091;-63
2022/07/07 11:26:58;;;;;;;1.92;1.00;;;;;;;20.33;100.00;102321.84;4746340;30;20091;-64